Time;durP1;ratioP1;P1;durP2;ratioP2;P2;SDS_P1;SDS_P2;PMS_P1;PMS_P2;Temp;Humidity;BMP_temperature;BMP_pressure;BME280_temperature;BME280_humidity;BME280_pressure;Samples;Min_cycle;Max_cycle;Signal;HPM_P1;HPM_P2
2022/04/30 14:02:28;;;;;;;4.15;1.05;;;;;;;23.13;31.42;99048.53;5129771;27;20189;-69
2022/04/30 14:04:54;;;;;;;4.28;1.60;;;;;;;23.25;31.10;99041.66;5105581;28;20040;-71
2022/04/30 14:07:19;;;;;;;2.95;1.52;;;;;;;23.47;30.56;99049.66;5037361;28;20035;-70
2022/04/30 14:09:45;;;;;;;7.07;1.58;;;;;;;23.64;30.23;99042.16;5089139;28;20028;-73
2022/04/30 14:12:50;;;;;;;8.85;1.40;;;;;;;23.83;29.34;99051.31;5067884;28;20826;-72
2022/04/30 14:15:16;;;;;;;6.05;1.50;;;;;;;23.91;29.09;99039.69;5065816;28;20041;-80
2022/04/30 14:20:25;;;;;;;4.40;1.50;;;;;;;24.08;28.45;99042.88;5067286;28;20497;-69
2022/04/30 14:22:50;;;;;;;2.58;1.30;;;;;;;24.14;28.16;99039.44;5068476;28;20029;-83
2022/04/30 14:25:16;;;;;;;10.77;1.80;;;;;;;24.28;29.84;99045.66;5067271;28;20032;-83
2022/04/30 14:28:44;;;;;;;3.85;1.90;;;;;;;24.43;28.94;99048.16;5150360;27;20410;-75
2022/04/30 14:31:11;;;;;;;11.05;1.60;;;;;;;24.49;28.77;99047.38;5129785;28;20128;-72
2022/04/30 14:33:36;;;;;;;4.55;1.80;;;;;;;24.53;28.54;99036.09;5092556;28;20039;-77
2022/04/30 14:36:09;;;;;;;5.20;2.80;;;;;;;24.58;28.40;99032.88;5097093;28;20081;-81
2022/04/30 14:38:36;;;;;;;4.72;2.13;;;;;;;24.63;28.29;99030.41;5077330;28;20035;-80
2022/04/30 14:41:01;;;;;;;8.93;2.08;;;;;;;24.65;28.17;99030.22;5107693;28;20074;-72
2022/04/30 14:43:27;;;;;;;5.95;1.80;;;;;;;24.69;27.72;99031.47;5129457;28;20051;-77
2022/04/30 14:45:52;;;;;;;7.57;1.75;;;;;;;24.70;27.65;99031.25;5077512;28;20031;-79
2022/04/30 14:48:18;;;;;;;3.67;1.67;;;;;;;24.72;28.03;99037.22;5112562;28;20122;-83
2022/04/30 14:50:44;;;;;;;3.75;1.42;;;;;;;24.78;27.81;99046.28;5110688;28;20040;-83
2022/04/30 14:53:09;;;;;;;2.80;1.30;;;;;;;24.78;27.26;99040.94;5128692;27;20054;-82
2022/04/30 14:55:34;;;;;;;3.75;1.50;;;;;;;24.77;27.28;99043.81;5109659;28;20092;-71
2022/04/30 14:58:00;;;;;;;5.18;1.50;;;;;;;24.78;26.83;99043.59;5123904;28;20042;-87
2022/04/30 15:00:26;;;;;;;2.85;1.35;;;;;;;24.74;26.61;99045.84;5127667;28;20023;-73
2022/04/30 15:02:52;;;;;;;4.50;1.40;;;;;;;24.74;26.55;99035.16;5057278;28;20475;-74
2022/04/30 15:05:17;;;;;;;2.22;1.25;;;;;;;24.80;26.70;99040.72;5089680;28;20133;-77
2022/04/30 15:07:43;;;;;;;4.20;1.33;;;;;;;24.82;26.66;99034.16;5075787;28;20135;-72
2022/04/30 15:10:09;;;;;;;4.22;1.33;;;;;;;24.79;26.74;99042.56;5109109;28;20482;-77
2022/04/30 15:12:34;;;;;;;4.15;1.30;;;;;;;24.82;26.72;99041.34;5092907;28;20454;-74
2022/04/30 15:15:01;;;;;;;5.68;1.77;;;;;;;24.85;26.79;99051.63;5128084;28;20391;-74
2022/04/30 15:17:27;;;;;;;4.97;1.10;;;;;;;24.64;24.95;99039.25;5075421;28;20023;-73
2022/04/30 15:19:53;;;;;;;2.67;1.20;;;;;;;24.17;25.13;99047.84;5109519;28;20038;-69
2022/04/30 15:23:57;;;;;;;3.90;1.25;;;;;;;23.75;26.88;99025.66;5067767;28;20375;-74
2022/04/30 15:27:45;;;;;;;2.97;1.20;;;;;;;23.69;27.23;99046.91;5067840;28;20394;-70
2022/04/30 15:30:11;;;;;;;3.35;1.35;;;;;;;23.70;27.75;99049.38;5067900;28;20111;-78
2022/04/30 15:32:36;;;;;;;7.68;1.20;;;;;;;23.70;28.77;99036.06;5049956;28;20183;-76
2022/04/30 15:35:46;;;;;;;5.07;1.23;;;;;;;23.83;27.41;99019.31;5067803;28;20410;-77
2022/04/30 15:38:11;;;;;;;4.05;1.20;;;;;;;23.60;28.31;99022.28;5051077;28;20036;-83
2022/04/30 15:40:37;;;;;;;2.92;1.08;;;;;;;23.56;27.25;99032.50;5034094;28;20106;-82
2022/04/30 15:43:03;;;;;;;3.30;1.35;;;;;;;23.58;27.57;99027.78;5066769;28;20041;-82
2022/04/30 15:45:28;;;;;;;1.98;1.05;;;;;;;23.35;28.42;99019.22;5065289;28;20029;-81
2022/04/30 15:53:47;;;;;;;2.58;1.10;;;;;;;22.95;29.31;99028.47;5052898;28;20416;-82
2022/04/30 15:56:09;;;;;;;2.17;1.13;;;;;;;22.90;29.32;99038.88;5053245;28;20044;-84
2022/04/30 15:58:36;;;;;;;2.85;1.27;;;;;;;22.61;30.14;99039.78;5034083;28;20385;-81
2022/04/30 16:01:03;;;;;;;1.60;1.10;;;;;;;22.35;29.08;99045.63;5050927;28;20048;-80
2022/04/30 16:03:29;;;;;;;5.85;1.40;;;;;;;22.29;29.65;99041.81;5067197;28;20025;-84
2022/04/30 16:05:54;;;;;;;2.03;1.15;;;;;;;22.09;29.89;99035.41;5036349;28;20064;-90
2022/04/30 16:08:20;;;;;;;2.17;1.20;;;;;;;22.11;30.36;99042.22;5050603;28;20548;-85
2022/04/30 16:10:47;;;;;;;6.32;1.27;;;;;;;22.11;30.05;99046.72;5065707;28;20055;-79
2022/04/30 16:13:12;;;;;;;3.00;1.00;;;;;;;22.12;29.96;99043.84;5066231;28;20467;-80
2022/04/30 16:15:40;;;;;;;2.45;1.20;;;;;;;22.10;30.32;99053.84;5033628;28;20045;-80
2022/04/30 16:18:06;;;;;;;3.35;1.27;;;;;;;22.03;30.10;99050.28;5050816;28;20475;-82
2022/04/30 16:20:33;;;;;;;19.55;3.88;;;;;;;21.96;31.54;99063.47;5051470;28;20052;-76
2022/04/30 16:22:59;;;;;;;10.50;1.60;;;;;;;21.99;31.18;99059.63;5068178;28;20071;-76
2022/04/30 16:25:25;;;;;;;2.47;1.30;;;;;;;21.98;30.63;99056.16;5066625;28;20024;-77
2022/04/30 16:27:50;;;;;;;3.65;1.25;;;;;;;22.00;30.60;99062.09;5034192;28;20040;-79
2022/04/30 16:30:16;;;;;;;3.70;1.05;;;;;;;22.01;30.31;99063.75;5050135;28;20427;-81
2022/04/30 16:32:41;;;;;;;2.60;1.25;;;;;;;22.01;30.39;99068.22;5049759;28;20195;-79
2022/04/30 16:35:07;;;;;;;2.03;0.95;;;;;;;21.96;30.27;99065.31;5033058;28;20114;-80
2022/04/30 16:37:33;;;;;;;5.45;1.08;;;;;;;21.93;30.36;99063.81;5067235;28;20495;-80
2022/04/30 16:39:58;;;;;;;3.08;1.20;;;;;;;21.90;30.55;99058.91;5067730;28;20052;-73
2022/04/30 16:42:25;;;;;;;5.13;1.25;;;;;;;21.87;30.58;99059.25;5067143;28;20068;-73
2022/04/30 16:44:50;;;;;;;2.85;1.27;;;;;;;21.84;30.67;99059.63;5066199;28;20078;-74
2022/04/30 16:47:16;;;;;;;2.60;1.00;;;;;;;21.79;31.03;99056.66;5034910;28;20033;-74
2022/04/30 16:49:42;;;;;;;7.47;1.50;;;;;;;21.74;31.06;99051.09;5052701;28;20537;-80
2022/04/30 16:52:25;;;;;;;4.00;1.00;;;;;;;21.73;31.15;99060.03;5036041;28;20033;-74
2022/04/30 16:57:40;;;;;;;3.15;1.60;;;;;;;21.55;31.25;99063.06;5026374;28;20044;-74
2022/04/30 17:00:16;;;;;;;5.57;1.60;;;;;;;21.48;31.44;99071.72;5009931;28;20496;-74
2022/04/30 17:02:45;;;;;;;4.93;2.20;;;;;;;21.42;31.28;99075.06;5017154;28;20064;-74
2022/04/30 17:05:11;;;;;;;6.43;2.70;;;;;;;21.35;31.47;99071.50;5034072;28;20029;-73
2022/04/30 17:07:38;;;;;;;4.13;2.08;;;;;;;21.28;31.70;99074.00;5015204;28;20475;-73
2022/04/30 17:10:04;;;;;;;7.22;1.80;;;;;;;21.22;32.85;99069.44;5016287;28;20041;-72
2022/04/30 17:12:30;;;;;;;6.43;1.70;;;;;;;21.15;32.90;99076.44;5000489;28;20523;-73
2022/04/30 17:14:56;;;;;;;2.40;1.27;;;;;;;21.07;32.98;99069.38;5034444;28;20025;-73
2022/04/30 17:17:22;;;;;;;3.08;1.52;;;;;;;21.00;32.85;99076.41;5016289;28;20033;-74
2022/04/30 17:19:48;;;;;;;3.95;1.55;;;;;;;20.90;33.05;99076.59;5033130;28;20042;-73
2022/04/30 17:22:13;;;;;;;5.20;1.30;;;;;;;20.84;33.07;99081.78;5033603;28;20032;-73
2022/04/30 17:24:39;;;;;;;3.65;1.30;;;;;;;20.80;32.97;99088.47;5016441;28;20030;-73
2022/04/30 17:27:04;;;;;;;2.22;1.30;;;;;;;20.78;32.96;99089.44;5021478;28;20083;-74
2022/04/30 17:29:30;;;;;;;3.47;1.85;;;;;;;20.70;33.69;99086.00;5046070;28;20500;-73
2022/04/30 17:40:08;;;;;;;1.98;1.30;;;;;;;20.41;33.47;99098.03;5038397;28;20040;-74
2022/04/30 17:42:35;;;;;;;2.20;1.52;;;;;;;20.34;33.54;99099.75;5053007;28;20059;-74
2022/04/30 17:45:01;;;;;;;4.18;1.50;;;;;;;20.33;33.71;99109.50;5035566;28;20041;-76
2022/04/30 17:47:27;;;;;;;3.33;1.50;;;;;;;20.29;33.71;99107.34;5018372;28;20033;-76
2022/04/30 17:49:53;;;;;;;2.75;1.35;;;;;;;20.18;33.85;99111.22;5035359;28;20118;-75
2022/04/30 17:52:19;;;;;;;2.67;1.50;;;;;;;20.11;34.22;99110.25;5051909;28;20075;-77
2022/04/30 17:54:45;;;;;;;3.08;1.60;;;;;;;20.09;34.19;99120.19;5052768;28;20107;-82
2022/04/30 17:57:11;;;;;;;4.47;1.30;;;;;;;20.03;34.14;99119.84;5052133;28;20032;-80
2022/04/30 17:59:36;;;;;;;4.00;1.85;;;;;;;19.96;34.31;99126.00;5018206;28;20068;-77
2022/04/30 18:02:03;;;;;;;3.53;1.65;;;;;;;19.98;34.42;99129.31;5035320;28;20565;-78
2022/04/30 18:04:28;;;;;;;5.22;1.70;;;;;;;19.91;34.62;99136.25;5034689;28;20033;-82
2022/04/30 18:06:56;;;;;;;3.38;1.70;;;;;;;19.88;34.70;99137.44;5034262;28;20094;-76
2022/04/30 18:09:22;;;;;;;3.63;1.83;;;;;;;19.79;34.85;99131.31;5034886;28;20025;-75
2022/04/30 18:11:47;;;;;;;10.75;2.20;;;;;;;19.98;41.28;99137.25;5052920;28;20040;-74
2022/04/30 18:14:15;;;;;;;5.93;2.03;;;;;;;19.94;37.60;99149.19;5034469;28;20480;-77
2022/04/30 18:16:42;;;;;;;4.77;1.83;;;;;;;19.90;36.59;99153.16;5051621;28;20104;-76
2022/04/30 18:19:08;;;;;;;4.88;1.63;;;;;;;19.82;36.03;99154.00;5018182;28;20036;-77
2022/04/30 18:21:35;;;;;;;3.50;1.90;;;;;;;19.79;35.69;99154.34;5045410;28;20034;-77
2022/04/30 18:24:04;;;;;;;2.88;1.77;;;;;;;19.76;35.43;99168.72;5031349;28;20017;-76
2022/04/30 18:26:30;;;;;;;2.20;1.70;;;;;;;19.70;35.30;99167.56;5031095;28;20124;-78
2022/04/30 18:28:56;;;;;;;4.22;2.17;;;;;;;19.69;35.38;99181.78;5031258;28;20105;-76
2022/04/30 18:31:21;;;;;;;6.25;2.33;;;;;;;19.66;35.20;99181.28;5042218;28;20033;-77
2022/04/30 18:33:50;;;;;;;3.95;2.30;;;;;;;19.58;35.31;99195.34;5033700;28;20041;-77
2022/04/30 18:36:15;;;;;;;4.15;2.10;;;;;;;19.54;35.38;99196.66;5044619;28;20028;-76
2022/04/30 18:38:41;;;;;;;3.38;2.22;;;;;;;19.47;35.08;99207.06;5037557;28;20032;-77
2022/04/30 18:41:06;;;;;;;3.22;1.88;;;;;;;19.39;35.18;99200.91;5054018;28;20035;-76
2022/04/30 18:43:32;;;;;;;3.88;2.90;;;;;;;19.39;35.66;99206.22;5053641;28;20154;-76
2022/04/30 18:45:57;;;;;;;10.55;5.80;;;;;;;19.40;36.08;99205.22;5071571;28;20032;-74
2022/04/30 18:48:25;;;;;;;7.38;4.55;;;;;;;19.39;35.87;99209.72;5070078;28;20101;-82
2022/04/30 18:50:52;;;;;;;5.20;3.45;;;;;;;19.44;36.09;99211.88;5072119;28;20593;-80
2022/04/30 18:53:18;;;;;;;4.20;2.80;;;;;;;19.44;36.22;99217.16;5053696;28;20036;-79
2022/04/30 19:01:21;;;;;;;2.58;1.67;;;;;;;19.46;36.30;99231.06;5048803;28;20044;-84
2022/04/30 19:03:47;;;;;;;3.80;1.80;;;;;;;19.51;36.31;99234.03;5071435;28;20035;-80
2022/04/30 19:06:13;;;;;;;2.92;2.05;;;;;;;19.49;36.40;99228.09;5024093;28;20037;-79
2022/04/30 19:08:40;;;;;;;2.97;1.83;;;;;;;19.51;36.46;99232.25;5030680;28;20100;-77
2022/04/30 19:11:06;;;;;;;2.35;1.80;;;;;;;19.52;36.44;99225.13;5030183;28;20030;-80
2022/04/30 19:13:33;;;;;;;3.13;1.70;;;;;;;19.51;36.69;99231.41;5013473;28;20099;-78
2022/04/30 19:15:58;;;;;;;4.93;1.90;;;;;;;19.48;36.82;99232.56;5027251;28;20056;-78
2022/04/30 19:18:24;;;;;;;2.78;1.77;;;;;;;19.45;36.88;99226.75;4995990;28;20128;-78
2022/04/30 19:20:49;;;;;;;6.43;2.10;;;;;;;19.49;36.89;99228.09;5029752;28;20037;-78
2022/04/30 19:23:15;;;;;;;2.00;1.60;;;;;;;19.47;36.71;99232.72;5031295;28;20026;-81
2022/04/30 19:25:41;;;;;;;3.63;1.90;;;;;;;19.48;36.70;99234.38;5013723;28;20057;-79
2022/04/30 19:28:07;;;;;;;3.17;1.80;;;;;;;19.48;36.51;99242.31;4997131;28;20026;-79
2022/04/30 19:30:33;;;;;;;2.80;1.90;;;;;;;19.47;36.64;99238.03;5014486;28;20393;-77
2022/04/30 19:32:58;;;;;;;3.28;1.85;;;;;;;19.42;36.92;99241.16;5030310;28;20206;-82
2022/04/30 19:35:24;;;;;;;3.28;1.90;;;;;;;19.38;37.20;99237.16;5016136;28;20049;-78
2022/04/30 19:37:49;;;;;;;4.05;2.13;;;;;;;19.41;37.61;99244.78;5016558;28;20044;-78
2022/04/30 19:40:15;;;;;;;4.80;2.00;;;;;;;19.40;37.60;99244.94;5051336;28;20033;-80
2022/04/30 19:42:41;;;;;;;5.13;2.10;;;;;;;19.39;37.88;99241.47;5049879;28;20033;-79
2022/04/30 19:45:08;;;;;;;5.03;2.40;;;;;;;19.36;38.04;99238.34;5051146;28;20514;-79
2022/04/30 19:47:34;;;;;;;5.00;3.50;;;;;;;19.37;38.14;99240.81;5049698;28;20469;-78
2022/04/30 19:50:02;;;;;;;5.32;3.50;;;;;;;19.33;38.33;99242.94;5017048;28;20033;-79
2022/04/30 19:52:30;;;;;;;5.00;3.27;;;;;;;19.30;38.53;99239.78;5031169;28;20045;-77
2022/04/30 19:54:56;;;;;;;7.30;3.10;;;;;;;19.32;38.87;99241.31;5013281;28;20044;-75
2022/04/30 19:57:22;;;;;;;7.38;2.83;;;;;;;19.28;39.37;99242.59;5030012;28;20033;-77
2022/04/30 19:59:48;;;;;;;5.60;2.70;;;;;;;19.24;40.43;99246.53;5013272;28;20072;-77
2022/04/30 20:02:16;;;;;;;5.55;2.50;;;;;;;19.16;40.86;99244.72;5030092;28;20484;-78
2022/04/30 20:04:43;;;;;;;4.78;2.60;;;;;;;19.12;41.31;99246.03;5013868;28;20041;-80
2022/04/30 20:07:10;;;;;;;4.90;2.50;;;;;;;19.09;41.75;99240.22;5013663;28;20034;-80
2022/04/30 20:09:36;;;;;;;5.47;2.90;;;;;;;19.05;42.14;99244.16;5029446;28;20033;-80
2022/04/30 20:17:31;;;;;;;6.38;3.38;;;;;;;18.87;42.98;99242.44;5031226;28;20048;-77
2022/04/30 20:19:56;;;;;;;4.95;3.30;;;;;;;18.81;43.07;99240.38;5029406;28;20041;-78
2022/04/30 20:22:22;;;;;;;4.68;3.00;;;;;;;18.81;42.97;99243.03;5033149;28;20416;-78
2022/04/30 20:24:48;;;;;;;4.82;2.83;;;;;;;18.74;42.98;99234.91;5016941;28;20041;-77
2022/04/30 20:27:14;;;;;;;6.47;2.53;;;;;;;18.75;43.19;99235.72;5033658;28;20022;-77
2022/04/30 20:29:40;;;;;;;5.20;2.47;;;;;;;18.72;43.21;99241.34;5000666;28;20116;-78
2022/04/30 20:37:35;;;;;;;5.13;2.25;;;;;;;18.61;43.25;99237.97;5033482;28;20037;-79
2022/04/30 20:40:01;;;;;;;3.67;2.30;;;;;;;18.58;43.37;99242.72;5033229;28;20037;-77
2022/04/30 20:42:27;;;;;;;4.78;2.13;;;;;;;18.52;43.47;99238.09;5016750;28;20036;-77
2022/04/30 20:44:53;;;;;;;5.57;2.40;;;;;;;18.47;43.42;99251.78;5016598;28;20025;-77
2022/04/30 20:47:18;;;;;;;4.07;2.42;;;;;;;18.43;43.56;99259.16;5015908;28;20033;-78
2022/04/30 20:49:44;;;;;;;3.58;2.17;;;;;;;18.41;43.68;99255.03;5019332;28;20033;-79
2022/04/30 20:52:09;;;;;;;5.18;2.20;;;;;;;18.33;43.82;99252.31;5036555;28;20025;-77
2022/04/30 20:54:36;;;;;;;6.43;2.30;;;;;;;18.25;43.80;99248.66;5020205;28;20041;-77
2022/04/30 20:57:06;;;;;;;4.75;2.13;;;;;;;18.26;44.21;99252.97;5036232;28;20025;-88
2022/04/30 20:59:32;;;;;;;5.25;2.53;;;;;;;18.24;44.08;99249.63;5036970;28;20033;-83
2022/04/30 21:01:57;;;;;;;5.70;2.47;;;;;;;18.20;44.30;99253.56;5035990;28;20553;-83
2022/04/30 21:04:26;;;;;;;4.65;2.40;;;;;;;18.15;44.89;99245.25;5036299;28;20036;-84
2022/04/30 21:06:52;;;;;;;5.43;2.35;;;;;;;18.13;44.70;99247.22;5035660;28;20569;-84
2022/04/30 21:09:17;;;;;;;3.78;2.42;;;;;;;18.01;44.72;99233.44;5036118;28;20053;-84
2022/04/30 21:11:43;;;;;;;4.40;2.30;;;;;;;18.03;44.46;99255.25;5035704;28;20033;-83
2022/04/30 21:14:09;;;;;;;5.53;2.25;;;;;;;17.97;44.62;99250.56;5051790;28;20036;-82
2022/04/30 21:16:34;;;;;;;3.65;2.03;;;;;;;17.92;44.74;99254.63;5036049;28;20033;-81
2022/04/30 21:19:01;;;;;;;4.47;2.50;;;;;;;17.84;44.92;99248.28;5054559;28;20033;-81
2022/04/30 21:21:26;;;;;;;4.30;2.35;;;;;;;17.81;45.03;99248.59;5037040;28;20437;-81
2022/04/30 21:23:52;;;;;;;5.13;2.28;;;;;;;17.73;44.87;99243.22;5036456;28;20083;-82
2022/04/30 21:26:17;;;;;;;4.63;2.30;;;;;;;17.70;45.03;99248.81;5020032;28;20040;-81
2022/04/30 21:28:44;;;;;;;4.72;2.20;;;;;;;17.67;45.14;99252.56;5036771;28;20087;-81
2022/04/30 21:31:14;;;;;;;4.20;2.22;;;;;;;17.62;45.16;99254.00;5036649;28;20032;-81
2022/04/30 21:33:40;;;;;;;5.65;2.30;;;;;;;17.61;44.99;99249.69;5036548;28;20041;-82
2022/04/30 21:36:06;;;;;;;4.28;2.30;;;;;;;17.51;45.24;99249.78;5036621;28;20039;-82
2022/04/30 21:38:32;;;;;;;6.07;2.38;;;;;;;17.48;45.22;99248.25;5052966;28;20060;-82
2022/04/30 21:43:42;;;;;;;4.40;2.40;;;;;;;17.42;45.47;99259.41;5039326;28;20063;-82
2022/04/30 21:46:08;;;;;;;4.93;2.40;;;;;;;17.37;45.66;99261.66;5052779;28;20487;-82
2022/04/30 21:48:33;;;;;;;4.20;2.22;;;;;;;17.29;45.78;99269.50;5036122;28;20495;-82
2022/04/30 21:50:59;;;;;;;3.95;2.28;;;;;;;17.25;45.95;99266.31;5036024;28;20060;-80
2022/04/30 21:53:24;;;;;;;5.30;2.17;;;;;;;17.23;45.90;99264.81;5036329;28;20045;-81
2022/04/30 22:01:28;;;;;;;4.97;2.20;;;;;;;17.07;46.16;99260.16;5052840;28;20090;-80
2022/04/30 22:03:53;;;;;;;5.10;2.40;;;;;;;17.05;46.29;99265.56;5020679;28;20463;-80
2022/04/30 22:06:19;;;;;;;4.68;2.70;;;;;;;16.96;46.32;99259.34;5035780;28;20029;-81
2022/04/30 22:08:49;;;;;;;5.13;2.45;;;;;;;16.92;46.70;99260.63;5036275;28;20512;-80
2022/04/30 22:11:15;;;;;;;5.32;2.45;;;;;;;16.93;46.72;99269.38;5036463;28;20033;-80
2022/04/30 22:13:43;;;;;;;5.72;2.50;;;;;;;16.91;46.63;99271.34;5053527;28;20122;-80
2022/04/30 22:16:09;;;;;;;6.50;2.60;;;;;;;16.84;46.66;99260.50;5035847;28;20036;-82
2022/04/30 22:18:35;;;;;;;5.97;2.63;;;;;;;16.87;46.68;99268.13;5035639;28;20068;-82
2022/04/30 22:21:01;;;;;;;7.45;2.47;;;;;;;16.82;46.71;99271.19;5053202;28;20036;-82
2022/04/30 22:23:26;;;;;;;4.13;2.50;;;;;;;16.77;46.75;99267.31;5035268;28;20037;-82
2022/04/30 22:25:52;;;;;;;5.75;2.60;;;;;;;16.75;46.71;99272.72;5035315;28;20029;-81
2022/04/30 22:28:21;;;;;;;5.75;2.50;;;;;;;16.71;47.11;99265.25;5035552;28;20124;-81
2022/04/30 22:30:53;;;;;;;5.45;2.90;;;;;;;16.64;47.22;99257.09;5036246;28;20120;-81
2022/04/30 22:33:19;;;;;;;7.70;2.92;;;;;;;16.60;47.35;99251.28;5036108;28;20465;-81
2022/04/30 22:35:44;;;;;;;6.53;2.65;;;;;;;16.57;47.40;99245.44;5034644;28;20068;-81
2022/04/30 22:38:10;;;;;;;3.58;2.40;;;;;;;16.61;47.24;99252.09;5052298;28;20056;-81
2022/04/30 22:43:20;;;;;;;4.97;2.55;;;;;;;16.51;47.47;99253.91;5037542;28;20055;-82
2022/04/30 22:45:45;;;;;;;7.00;3.10;;;;;;;16.50;47.42;99250.47;5051207;28;20472;-81
2022/04/30 22:48:10;;;;;;;4.97;2.65;;;;;;;16.48;47.39;99239.25;5052791;28;20025;-81
2022/04/30 22:50:36;;;;;;;8.77;2.60;;;;;;;16.43;47.44;99234.41;5053047;28;20459;-81
2022/04/30 22:53:02;;;;;;;9.10;2.80;;;;;;;16.41;47.51;99233.72;5034753;28;20056;-81
2022/04/30 22:55:28;;;;;;;4.68;2.53;;;;;;;16.37;47.70;99242.06;5034853;28;20087;-81
2022/04/30 22:57:53;;;;;;;6.03;2.50;;;;;;;16.34;47.62;99248.41;5052681;28;20037;-81
2022/04/30 23:00:18;;;;;;;5.43;2.63;;;;;;;16.30;47.62;99227.75;5051823;28;20091;-81
2022/04/30 23:02:44;;;;;;;5.38;2.28;;;;;;;16.31;47.87;99237.34;5051498;28;20480;-81
2022/04/30 23:05:11;;;;;;;4.35;2.50;;;;;;;16.31;47.63;99230.25;5051397;28;20025;-81
2022/04/30 23:07:40;;;;;;;6.18;2.47;;;;;;;16.28;47.74;99225.28;5051584;28;20029;-81
2022/04/30 23:10:07;;;;;;;6.25;2.30;;;;;;;16.24;47.88;99218.63;5034876;28;20033;-81
2022/04/30 23:12:33;;;;;;;4.97;2.20;;;;;;;16.21;47.79;99221.56;5034823;28;20056;-82
2022/04/30 23:14:58;;;;;;;5.72;2.78;;;;;;;16.18;48.05;99216.56;5050611;28;20040;-82
2022/04/30 23:17:24;;;;;;;6.25;2.75;;;;;;;16.14;48.18;99220.44;5035383;28;20385;-82
2022/04/30 23:19:49;;;;;;;5.47;2.50;;;;;;;16.11;48.10;99213.66;5036170;28;20040;-82
2022/04/30 23:22:15;;;;;;;3.65;2.17;;;;;;;16.09;48.13;99218.22;5034656;28;20112;-82
2022/04/30 23:24:40;;;;;;;6.78;2.90;;;;;;;16.04;48.40;99216.03;5051334;28;20047;-82
2022/04/30 23:27:06;;;;;;;3.85;2.60;;;;;;;16.01;48.29;99220.75;5034497;28;20033;-82
2022/04/30 23:29:32;;;;;;;6.28;2.90;;;;;;;15.94;48.45;99209.94;5050494;28;20070;-82
2022/04/30 23:31:58;;;;;;;6.82;2.40;;;;;;;15.94;48.55;99212.59;5051381;28;20044;-82
2022/04/30 23:34:24;;;;;;;5.80;2.78;;;;;;;15.91;48.57;99207.59;5034387;28;20057;-82
2022/04/30 23:36:50;;;;;;;3.63;2.50;;;;;;;15.87;48.46;99214.91;5017942;28;20127;-82
2022/04/30 23:39:15;;;;;;;5.10;2.38;;;;;;;15.82;48.72;99208.44;5034663;28;20037;-81
2022/04/30 23:41:41;;;;;;;5.43;2.60;;;;;;;15.78;48.70;99209.66;5034412;28;20115;-81
2022/04/30 23:44:06;;;;;;;5.07;2.65;;;;;;;15.77;48.88;99208.84;5034480;28;20021;-81
2022/04/30 23:46:32;;;;;;;6.55;2.72;;;;;;;15.81;48.60;99214.66;5051327;28;20106;-81
2022/04/30 23:48:58;;;;;;;9.30;2.80;;;;;;;15.77;48.72;99206.22;5034643;28;20036;-81
2022/04/30 23:51:27;;;;;;;5.00;2.55;;;;;;;15.77;48.66;99214.09;5017844;28;20415;-81
2022/04/30 23:53:52;;;;;;;5.70;2.58;;;;;;;15.71;48.62;99217.25;5050824;28;20043;-81
2022/04/30 23:56:18;;;;;;;5.07;2.55;;;;;;;15.71;48.70;99220.72;5036203;28;20029;-81
2022/04/30 23:58:44;;;;;;;5.57;2.92;;;;;;;15.65;48.78;99212.53;5054712;28;20035;-81
